sensor_id;sensor_type;location;lat;lon;timestamp;pressure;altitude;pressure_sealevel;temperature;humidity
24956;BME280;12988;42.710;23.390;2022-08-21T00:01:40;95037.56;;;19.53;100.00
24956;BME280;12988;42.710;23.390;2022-08-21T00:04:06;95035.25;;;19.51;100.00
24956;BME280;12988;42.710;23.390;2022-08-21T00:06:33;95034.09;;;19.49;100.00
24956;BME280;12988;42.710;23.390;2022-08-21T00:08:59;95037.94;;;19.51;100.00
24956;BME280;12988;42.710;23.390;2022-08-21T00:11:25;95023.38;;;19.49;100.00
24956;BME280;12988;42.710;23.390;2022-08-21T00:13:52;95024.19;;;19.53;100.00
24956;BME280;12988;42.710;23.390;2022-08-21T00:16:18;95017.66;;;19.54;100.00
24956;BME280;12988;42.710;23.390;2022-08-21T00:18:43;95020.34;;;19.54;100.00
24956;BME280;12988;42.710;23.390;2022-08-21T00:21:11;95023.81;;;19.37;100.00
24956;BME280;12988;42.710;23.390;2022-08-21T00:23:37;95019.97;;;19.38;100.00
24956;BME280;12988;42.710;23.390;2022-08-21T00:26:02;95010.41;;;19.37;100.00
24956;BME280;12988;42.710;23.390;2022-08-21T00:28:28;95005.81;;;19.34;100.00
24956;BME280;12988;42.710;23.390;2022-08-21T00:30:53;95018.81;;;19.35;100.00
24956;BME280;12988;42.710;23.390;2022-08-21T00:33:18;95014.63;;;19.38;100.00
24956;BME280;12988;42.710;23.390;2022-08-21T00:35:44;95010.00;;;19.42;100.00
24956;BME280;12988;42.710;23.390;2022-08-21T00:38:09;95009.63;;;19.40;100.00
24956;BME280;12988;42.710;23.390;2022-08-21T00:40:47;95016.53;;;19.44;100.00
24956;BME280;12988;42.710;23.390;2022-08-21T00:43:17;95016.13;;;19.49;100.00
24956;BME280;12988;42.710;23.390;2022-08-21T00:45:44;95013.47;;;19.35;100.00
24956;BME280;12988;42.710;23.390;2022-08-21T00:48:09;95013.88;;;19.24;100.00
24956;BME280;12988;42.710;23.390;2022-08-21T00:50:40;95021.88;;;19.10;100.00
24956;BME280;12988;42.710;23.390;2022-08-21T00:53:07;95021.88;;;18.99;100.00
24956;BME280;12988;42.710;23.390;2022-08-21T00:55:35;95023.03;;;18.98;100.00
24956;BME280;12988;42.710;23.390;2022-08-21T00:58:02;95025.31;;;18.96;100.00
24956;BME280;12988;42.710;23.390;2022-08-21T01:03:15;95019.19;;;18.99;100.00
24956;BME280;12988;42.710;23.390;2022-08-21T01:05:42;95015.34;;;19.07;100.00
24956;BME280;12988;42.710;23.390;2022-08-21T01:08:08;95010.03;;;19.18;100.00
24956;BME280;12988;42.710;23.390;2022-08-21T01:10:35;95006.97;;;19.26;100.00
24956;BME280;12988;42.710;23.390;2022-08-21T01:13:03;95006.19;;;19.32;100.00
24956;BME280;12988;42.710;23.390;2022-08-21T01:15:32;95006.22;;;19.36;100.00
24956;BME280;12988;42.710;23.390;2022-08-21T01:17:58;95000.06;;;19.35;100.00
24956;BME280;12988;42.710;23.390;2022-08-21T01:20:25;94990.09;;;19.43;100.00
24956;BME280;12988;42.710;23.390;2022-08-21T01:22:50;94989.72;;;19.41;100.00
24956;BME280;12988;42.710;23.390;2022-08-21T01:25:16;94998.16;;;19.43;100.00
24956;BME280;12988;42.710;23.390;2022-08-21T01:27:44;94997.38;;;19.46;100.00
24956;BME280;12988;42.710;23.390;2022-08-21T01:30:14;94995.84;;;19.52;100.00
24956;BME280;12988;42.710;23.390;2022-08-21T01:32:41;94990.88;;;19.54;100.00
24956;BME280;12988;42.710;23.390;2022-08-21T01:35:07;94995.06;;;19.58;100.00
24956;BME280;12988;42.710;23.390;2022-08-21T01:37:34;94985.84;;;19.59;100.00
24956;BME280;12988;42.710;23.390;2022-08-21T01:39:59;94993.53;;;19.61;100.00
24956;BME280;12988;42.710;23.390;2022-08-21T01:42:26;94990.47;;;19.59;100.00
24956;BME280;12988;42.710;23.390;2022-08-21T01:44:51;94993.16;;;19.59;100.00
24956;BME280;12988;42.710;23.390;2022-08-21T01:47:17;95010.00;;;19.56;100.00
24956;BME280;12988;42.710;23.390;2022-08-21T01:49:43;95015.38;;;19.42;100.00
24956;BME280;12988;42.710;23.390;2022-08-21T01:52:09;95008.13;;;19.39;100.00
24956;BME280;12988;42.710;23.390;2022-08-21T01:54:37;95003.91;;;19.41;100.00
24956;BME280;12988;42.710;23.390;2022-08-21T01:57:03;95006.56;;;19.48;100.00
24956;BME280;12988;42.710;23.390;2022-08-21T01:59:28;95005.41;;;19.49;100.00
24956;BME280;12988;42.710;23.390;2022-08-21T02:01:54;95002.38;;;19.51;100.00
24956;BME280;12988;42.710;23.390;2022-08-21T02:04:20;95003.13;;;19.44;100.00
24956;BME280;12988;42.710;23.390;2022-08-21T02:06:46;95010.03;;;19.45;100.00
24956;BME280;12988;42.710;23.390;2022-08-21T02:09:13;95009.25;;;19.45;100.00
24956;BME280;12988;42.710;23.390;2022-08-21T02:11:40;95008.50;;;19.44;100.00
24956;BME280;12988;42.710;23.390;2022-08-21T02:14:11;95019.22;;;19.44;100.00
24956;BME280;12988;42.710;23.390;2022-08-21T02:16:38;95019.19;;;19.37;100.00
24956;BME280;12988;42.710;23.390;2022-08-21T02:19:04;95020.34;;;19.36;100.00
24956;BME280;12988;42.710;23.390;2022-08-21T02:21:29;95018.84;;;19.32;100.00
24956;BME280;12988;42.710;23.390;2022-08-21T02:23:55;95015.75;;;19.33;100.00
24956;BME280;12988;42.710;23.390;2022-08-21T02:26:20;95019.56;;;19.39;100.00
24956;BME280;12988;42.710;23.390;2022-08-21T02:28:46;95014.63;;;19.38;100.00
24956;BME280;12988;42.710;23.390;2022-08-21T02:31:11;95013.47;;;19.35;100.00
24956;BME280;12988;42.710;23.390;2022-08-21T02:33:37;95016.91;;;19.36;100.00
24956;BME280;12988;42.710;23.390;2022-08-21T02:36:03;95023.81;;;19.37;100.00
24956;BME280;12988;42.710;23.390;2022-08-21T02:38:31;95028.78;;;19.28;100.00
24956;BME280;12988;42.710;23.390;2022-08-21T02:41:04;95024.59;;;19.24;100.00
24956;BME280;12988;42.710;23.390;2022-08-21T02:43:29;95018.84;;;19.18;100.00
24956;BME280;12988;42.710;23.390;2022-08-21T02:45:56;95025.31;;;19.14;100.00
24956;BME280;12988;42.710;23.390;2022-08-21T02:48:24;95017.31;;;19.21;100.00
24956;BME280;12988;42.710;23.390;2022-08-21T02:50:56;95021.91;;;19.20;100.00
24956;BME280;12988;42.710;23.390;2022-08-21T02:53:22;95016.94;;;19.26;100.00
24956;BME280;12988;42.710;23.390;2022-08-21T02:55:49;95026.50;;;19.16;100.00
24956;BME280;12988;42.710;23.390;2022-08-21T02:58:19;95031.47;;;19.21;100.00
24956;BME280;12988;42.710;23.390;2022-08-21T03:00:45;95030.72;;;19.21;100.00
24956;BME280;12988;42.710;23.390;2022-08-21T03:03:10;95036.06;;;19.17;100.00
24956;BME280;12988;42.710;23.390;2022-08-21T03:05:37;95035.28;;;19.27;100.00
24956;BME280;12988;42.710;23.390;2022-08-21T03:08:05;95032.97;;;19.29;100.00
24956;BME280;12988;42.710;23.390;2022-08-21T03:10:35;95032.63;;;19.20;100.00
24956;BME280;12988;42.710;23.390;2022-08-21T03:13:00;95034.13;;;19.21;100.00
24956;BME280;12988;42.710;23.390;2022-08-21T03:15:27;95034.91;;;19.18;100.00
24956;BME280;12988;42.710;23.390;2022-08-21T03:17:53;95037.94;;;19.13;100.00
24956;BME280;12988;42.710;23.390;2022-08-21T03:20:21;95036.41;;;19.12;100.00
24956;BME280;12988;42.710;23.390;2022-08-21T03:22:49;95038.75;;;19.17;100.00
24956;BME280;12988;42.710;23.390;2022-08-21T03:25:15;95031.81;;;19.13;100.00
24956;BME280;12988;42.710;23.390;2022-08-21T03:27:41;95030.69;;;19.00;100.00
24956;BME280;12988;42.710;23.390;2022-08-21T03:30:08;95032.94;;;18.91;100.00
24956;BME280;12988;42.710;23.390;2022-08-21T03:32:33;95036.78;;;18.97;100.00
24956;BME280;12988;42.710;23.390;2022-08-21T03:34:59;95043.28;;;18.99;100.00
24956;BME280;12988;42.710;23.390;2022-08-21T03:37:26;95041.38;;;19.03;100.00
24956;BME280;12988;42.710;23.390;2022-08-21T03:39:52;95042.16;;;19.11;100.00
24956;BME280;12988;42.710;23.390;2022-08-21T03:42:17;95041.41;;;19.10;100.00
24956;BME280;12988;42.710;23.390;2022-08-21T03:44:43;95034.88;;;19.04;100.00
24956;BME280;12988;42.710;23.390;2022-08-21T03:47:08;95041.00;;;19.05;100.00
24956;BME280;12988;42.710;23.390;2022-08-21T03:49:34;95035.25;;;18.92;100.00
24956;BME280;12988;42.710;23.390;2022-08-21T03:52:00;95034.47;;;18.88;100.00
24956;BME280;12988;42.710;23.390;2022-08-21T03:54:26;95030.25;;;18.87;100.00
24956;BME280;12988;42.710;23.390;2022-08-21T03:56:52;95039.09;;;18.91;100.00
24956;BME280;12988;42.710;23.390;2022-08-21T03:59:17;95033.72;;;18.95;100.00
24956;BME280;12988;42.710;23.390;2022-08-21T04:01:57;95041.38;;;18.96;100.00
24956;BME280;12988;42.710;23.390;2022-08-21T04:04:24;95049.03;;;19.01;100.00
24956;BME280;12988;42.710;23.390;2022-08-21T04:06:49;95043.69;;;19.05;100.00
24956;BME280;12988;42.710;23.390;2022-08-21T04:09:17;95042.91;;;19.15;100.00
24956;BME280;12988;42.710;23.390;2022-08-21T04:11:43;95043.31;;;19.20;100.00
24956;BME280;12988;42.710;23.390;2022-08-21T04:14:08;95046.38;;;19.26;100.00
24956;BME280;12988;42.710;23.390;2022-08-21T04:16:34;95049.81;;;19.26;100.00
24956;BME280;12988;42.710;23.390;2022-08-21T04:19:00;95044.47;;;19.19;100.00
24956;BME280;12988;42.710;23.390;2022-08-21T04:21:26;95042.94;;;19.18;100.00
24956;BME280;12988;42.710;23.390;2022-08-21T04:23:54;95040.66;;;19.20;100.00
24956;BME280;12988;42.710;23.390;2022-08-21T04:26:20;95032.63;;;19.20;100.00
24956;BME280;12988;42.710;23.390;2022-08-21T04:28:45;95026.88;;;19.25;100.00
24956;BME280;12988;42.710;23.390;2022-08-21T04:31:11;95032.22;;;19.32;100.00
24956;BME280;12988;42.710;23.390;2022-08-21T04:33:36;95032.22;;;19.28;100.00
24956;BME280;12988;42.710;23.390;2022-08-21T04:36:02;95037.19;;;19.37;100.00
24956;BME280;12988;42.710;23.390;2022-08-21T04:38:28;95031.47;;;19.25;100.00
24956;BME280;12988;42.710;23.390;2022-08-21T04:40:53;95039.88;;;19.23;100.00
24956;BME280;12988;42.710;23.390;2022-08-21T04:43:19;95034.53;;;19.27;100.00
24956;BME280;12988;42.710;23.390;2022-08-21T04:45:48;95038.34;;;19.29;100.00
24956;BME280;12988;42.710;23.390;2022-08-21T04:48:16;95035.28;;;19.55;100.00
24956;BME280;12988;42.710;23.390;2022-08-21T04:56:01;95040.16;;;19.95;100.00
24956;BME280;12988;42.710;23.390;2022-08-21T04:58:28;95033.25;;;19.87;100.00
24956;BME280;12988;42.710;23.390;2022-08-21T05:00:56;95032.47;;;20.07;100.00
24956;BME280;12988;42.710;23.390;2022-08-21T05:03:23;95034.28;;;20.31;100.00
24956;BME280;12988;42.710;23.390;2022-08-21T05:05:49;95022.03;;;20.30;100.00
24956;BME280;12988;42.710;23.390;2022-08-21T05:08:19;95018.16;;;20.42;100.00
24956;BME280;12988;42.710;23.390;2022-08-21T05:10:45;95018.31;;;20.79;100.00
24956;BME280;12988;42.710;23.390;2022-08-21T05:13:12;95010.59;;;21.79;100.00
24956;BME280;12988;42.710;23.390;2022-08-21T05:15:38;95014.03;;;22.46;100.00
24956;BME280;12988;42.710;23.390;2022-08-21T05:18:04;95013.13;;;23.12;100.00
24956;BME280;12988;42.710;23.390;2022-08-21T05:20:30;95015.03;;;23.58;100.00
24956;BME280;12988;42.710;23.390;2022-08-21T05:22:56;95006.84;;;23.42;100.00
24956;BME280;12988;42.710;23.390;2022-08-21T05:25:21;95004.66;;;23.10;100.00
24956;BME280;12988;42.710;23.390;2022-08-21T05:27:47;95004.81;;;23.00;100.00
24956;BME280;12988;42.710;23.390;2022-08-21T05:30:12;95000.47;;;23.06;100.00
24956;BME280;12988;42.710;23.390;2022-08-21T05:32:38;94998.38;;;23.17;100.00
24956;BME280;12988;42.710;23.390;2022-08-21T05:35:05;94996.66;;;23.30;100.00
24956;BME280;12988;42.710;23.390;2022-08-21T05:37:31;95003.09;;;23.59;100.00
24956;BME280;12988;42.710;23.390;2022-08-21T05:39:56;94991.66;;;25.03;100.00
24956;BME280;12988;42.710;23.390;2022-08-21T05:42:21;94987.78;;;25.04;100.00
24956;BME280;12988;42.710;23.390;2022-08-21T05:44:47;94991.81;;;24.26;100.00
24956;BME280;12988;42.710;23.390;2022-08-21T05:47:12;94980.09;;;25.35;100.00
24956;BME280;12988;42.710;23.390;2022-08-21T05:49:38;94969.63;;;26.88;100.00
24956;BME280;12988;42.710;23.390;2022-08-21T05:52:03;94963.94;;;28.95;100.00
24956;BME280;12988;42.710;23.390;2022-08-21T05:54:29;94954.97;;;31.01;81.65
24956;BME280;12988;42.710;23.390;2022-08-21T05:56:55;94959.16;;;32.42;70.68
24956;BME280;12988;42.710;23.390;2022-08-21T05:59:21;94954.81;;;31.84;73.88
24956;BME280;12988;42.710;23.390;2022-08-21T06:01:47;94957.69;;;30.59;77.17
24956;BME280;12988;42.710;23.390;2022-08-21T06:04:12;94961.25;;;29.61;81.89
24956;BME280;12988;42.710;23.390;2022-08-21T06:06:39;94961.81;;;28.90;85.32
24956;BME280;12988;42.710;23.390;2022-08-21T06:09:05;94966.44;;;28.29;96.39
24956;BME280;12988;42.710;23.390;2022-08-21T06:11:31;94968.63;;;27.66;99.50
24956;BME280;12988;42.710;23.390;2022-08-21T06:13:57;94967.34;;;26.86;100.00
24956;BME280;12988;42.710;23.390;2022-08-21T06:16:23;94970.97;;;26.43;100.00
24956;BME280;12988;42.710;23.390;2022-08-21T06:18:49;94958.75;;;25.97;100.00
24956;BME280;12988;42.710;23.390;2022-08-21T06:21:14;94961.09;;;25.67;100.00
24956;BME280;12988;42.710;23.390;2022-08-21T06:23:41;94968.66;;;25.88;100.00
24956;BME280;12988;42.710;23.390;2022-08-21T06:26:08;94973.72;;;26.02;100.00
24956;BME280;12988;42.710;23.390;2022-08-21T06:28:35;94973.75;;;26.14;100.00
24956;BME280;12988;42.710;23.390;2022-08-21T06:31:11;94971.69;;;26.18;100.00
24956;BME280;12988;42.710;23.390;2022-08-21T06:33:37;94973.97;;;26.20;100.00
24956;BME280;12988;42.710;23.390;2022-08-21T06:36:03;94967.22;;;26.12;100.00
24956;BME280;12988;42.710;23.390;2022-08-21T06:38:28;94964.00;;;26.17;100.00
24956;BME280;12988;42.710;23.390;2022-08-21T06:40:54;94967.72;;;26.35;100.00
24956;BME280;12988;42.710;23.390;2022-08-21T06:43:19;94957.47;;;26.55;100.00
24956;BME280;12988;42.710;23.390;2022-08-21T06:45:45;94955.28;;;27.00;100.00
24956;BME280;12988;42.710;23.390;2022-08-21T06:48:10;94967.19;;;27.40;100.00
24956;BME280;12988;42.710;23.390;2022-08-21T06:50:36;94970.50;;;27.69;100.00
24956;BME280;12988;42.710;23.390;2022-08-21T06:53:05;94970.47;;;28.03;100.00
24956;BME280;12988;42.710;23.390;2022-08-21T06:55:31;94971.22;;;28.25;99.29
24956;BME280;12988;42.710;23.390;2022-08-21T06:57:57;94976.16;;;28.17;96.71
24956;BME280;12988;42.710;23.390;2022-08-21T07:00:23;94979.44;;;28.12;97.01
24956;BME280;12988;42.710;23.390;2022-08-21T07:02:48;94981.00;;;27.79;100.00
24956;BME280;12988;42.710;23.390;2022-08-21T07:05:14;94976.34;;;27.80;99.23
24956;BME280;12988;42.710;23.390;2022-08-21T07:07:39;94982.06;;;27.82;100.00
24956;BME280;12988;42.710;23.390;2022-08-21T07:10:05;94979.72;;;27.71;100.00
24956;BME280;12988;42.710;23.390;2022-08-21T07:12:30;94980.97;;;27.92;99.14
24956;BME280;12988;42.710;23.390;2022-08-21T07:14:56;94980.38;;;28.18;97.16
24956;BME280;12988;42.710;23.390;2022-08-21T07:17:21;94982.47;;;28.14;93.13
24956;BME280;12988;42.710;23.390;2022-08-21T07:19:47;94970.66;;;28.30;93.80
24956;BME280;12988;42.710;23.390;2022-08-21T07:22:13;94975.75;;;28.28;93.30
24956;BME280;12988;42.710;23.390;2022-08-21T07:24:41;94977.34;;;28.16;91.21
24956;BME280;12988;42.710;23.390;2022-08-21T07:27:06;94974.06;;;28.64;91.04
24956;BME280;12988;42.710;23.390;2022-08-21T07:29:32;94961.09;;;29.07;88.53
24956;BME280;12988;42.710;23.390;2022-08-21T07:31:57;94973.66;;;29.62;82.67
24956;BME280;12988;42.710;23.390;2022-08-21T07:34:22;94969.44;;;29.79;76.41
24956;BME280;12988;42.710;23.390;2022-08-21T07:36:48;94959.44;;;29.94;79.01
24956;BME280;12988;42.710;23.390;2022-08-21T07:39:13;94959.97;;;30.52;70.95
24956;BME280;12988;42.710;23.390;2022-08-21T07:41:38;94957.81;;;30.74;67.08
24956;BME280;12988;42.710;23.390;2022-08-21T07:44:04;94956.41;;;30.19;72.58
24956;BME280;12988;42.710;23.390;2022-08-21T07:46:29;94950.94;;;30.28;75.58
24956;BME280;12988;42.710;23.390;2022-08-21T07:48:55;94947.22;;;30.76;77.26
24956;BME280;12988;42.710;23.390;2022-08-21T07:51:24;94944.44;;;31.17;69.17
24956;BME280;12988;42.710;23.390;2022-08-21T07:53:52;94938.41;;;30.72;63.60
24956;BME280;12988;42.710;23.390;2022-08-21T07:56:18;94942.59;;;30.32;68.19
24956;BME280;12988;42.710;23.390;2022-08-21T07:58:44;94942.19;;;29.52;71.68
24956;BME280;12988;42.710;23.390;2022-08-21T08:01:10;94949.38;;;29.37;73.54
24956;BME280;12988;42.710;23.390;2022-08-21T08:03:36;94948.97;;;29.93;79.12
24956;BME280;12988;42.710;23.390;2022-08-21T08:06:02;94951.75;;;31.02;70.90
24956;BME280;12988;42.710;23.390;2022-08-21T08:08:30;94947.03;;;31.68;63.00
24956;BME280;12988;42.710;23.390;2022-08-21T08:10:56;94947.94;;;32.41;nan
24956;BME280;12988;42.710;23.390;2022-08-21T08:13:23;94945.47;;;33.00;57.21
24956;BME280;12988;42.710;23.390;2022-08-21T08:15:50;94935.19;;;33.30;56.83
24956;BME280;12988;42.710;23.390;2022-08-21T08:18:16;94937.19;;;33.29;55.68
24956;BME280;12988;42.710;23.390;2022-08-21T08:20:41;94942.59;;;33.09;55.70
24956;BME280;12988;42.710;23.390;2022-08-21T08:23:10;94935.97;;;32.81;58.08
24956;BME280;12988;42.710;23.390;2022-08-21T08:25:36;94945.38;;;32.66;57.91
24956;BME280;12988;42.710;23.390;2022-08-21T08:28:01;94941.13;;;32.50;58.92
24956;BME280;12988;42.710;23.390;2022-08-21T08:30:27;94943.88;;;30.72;62.80
24956;BME280;12988;42.710;23.390;2022-08-21T08:32:52;94942.94;;;29.71;74.75
24956;BME280;12988;42.710;23.390;2022-08-21T08:35:18;94943.91;;;29.28;81.01
24956;BME280;12988;42.710;23.390;2022-08-21T08:37:43;94941.84;;;28.54;82.17
24956;BME280;12988;42.710;23.390;2022-08-21T08:40:35;94936.75;;;28.13;89.97
24956;BME280;12988;42.710;23.390;2022-08-21T08:43:03;94948.22;;;28.38;89.51
24956;BME280;12988;42.710;23.390;2022-08-21T08:45:32;94950.25;;;28.04;87.38
24956;BME280;12988;42.710;23.390;2022-08-21T08:48:03;94948.28;;;27.83;91.10
24956;BME280;12988;42.710;23.390;2022-08-21T08:50:49;94943.47;;;27.87;91.20
24956;BME280;12988;42.710;23.390;2022-08-21T08:53:22;94939.28;;;27.52;91.44
24956;BME280;12988;42.710;23.390;2022-08-21T08:55:52;94935.59;;;26.87;94.72
24956;BME280;12988;42.710;23.390;2022-08-21T08:58:25;94939.59;;;26.04;100.00
24956;BME280;12988;42.710;23.390;2022-08-21T09:00:53;94938.56;;;25.41;100.00
24956;BME280;12988;42.710;23.390;2022-08-21T09:03:21;94937.56;;;25.35;100.00
24956;BME280;12988;42.710;23.390;2022-08-21T09:06:02;94934.63;;;25.30;100.00
24956;BME280;12988;42.710;23.390;2022-08-21T09:08:45;94930.81;;;25.43;100.00
24956;BME280;12988;42.710;23.390;2022-08-21T09:11:32;94924.75;;;25.52;100.00
24956;BME280;12988;42.710;23.390;2022-08-21T09:14:08;94925.53;;;25.81;100.00
24956;BME280;12988;42.710;23.390;2022-08-21T09:22:29;94920.16;;;26.84;100.00
24956;BME280;12988;42.710;23.390;2022-08-21T09:25:18;94915.56;;;27.31;100.00
24956;BME280;12988;42.710;23.390;2022-08-21T09:27:45;94905.47;;;27.31;95.15
24956;BME280;12988;42.710;23.390;2022-08-21T09:30:11;94909.84;;;26.91;97.61
24956;BME280;12988;42.710;23.390;2022-08-21T09:32:38;94907.00;;;27.07;100.00
24956;BME280;12988;42.710;23.390;2022-08-21T09:35:18;94900.91;;;27.28;96.62
24956;BME280;12988;42.710;23.390;2022-08-21T09:38:06;94907.25;;;27.47;95.94
24956;BME280;12988;42.710;23.390;2022-08-21T09:40:45;94899.28;;;28.68;89.31
24956;BME280;12988;42.710;23.390;2022-08-21T09:45:38;94902.59;;;29.12;74.15
24956;BME280;12988;42.710;23.390;2022-08-21T09:48:23;94901.31;;;29.79;73.27
24956;BME280;12988;42.710;23.390;2022-08-21T09:50:50;94899.19;;;30.60;76.31
24956;BME280;12988;42.710;23.390;2022-08-21T09:53:27;94898.59;;;30.98;63.57
24956;BME280;12988;42.710;23.390;2022-08-21T09:56:00;94894.06;;;29.76;70.56
24956;BME280;12988;42.710;23.390;2022-08-21T09:58:46;94885.06;;;28.64;82.05
24956;BME280;12988;42.710;23.390;2022-08-21T10:01:22;94897.72;;;27.98;85.27
24956;BME280;12988;42.710;23.390;2022-08-21T10:04:01;94894.38;;;27.60;85.40
24956;BME280;12988;42.710;23.390;2022-08-21T10:06:28;94882.59;;;27.07;90.18
24956;BME280;12988;42.710;23.390;2022-08-21T10:09:09;94891.88;;;26.72;94.28
24956;BME280;12988;42.710;23.390;2022-08-21T10:11:35;94886.91;;;26.46;98.39
24956;BME280;12988;42.710;23.390;2022-08-21T10:19:25;94884.41;;;25.57;100.00
24956;BME280;12988;42.710;23.390;2022-08-21T10:36:13;94870.63;;;25.80;100.00
24956;BME280;12988;42.710;23.390;2022-08-21T10:38:55;94869.84;;;26.08;100.00
24956;BME280;12988;42.710;23.390;2022-08-21T10:47:08;94853.09;;;26.51;100.00
24956;BME280;12988;42.710;23.390;2022-08-21T10:57:44;94847.66;;;26.26;100.00
24956;BME280;12988;42.710;23.390;2022-08-21T11:00:17;94844.94;;;26.26;100.00
24956;BME280;12988;42.710;23.390;2022-08-21T11:03:01;94837.78;;;26.69;100.00
24956;BME280;12988;42.710;23.390;2022-08-21T11:05:35;94836.28;;;27.14;99.68
24956;BME280;12988;42.710;23.390;2022-08-21T11:08:10;94831.44;;;27.52;94.85
24956;BME280;12988;42.710;23.390;2022-08-21T11:10:50;94833.28;;;27.98;93.60
24956;BME280;12988;42.710;23.390;2022-08-21T11:13:25;94816.94;;;27.89;86.59
24956;BME280;12988;42.710;23.390;2022-08-21T11:16:21;94817.00;;;27.77;86.26
24956;BME280;12988;42.710;23.390;2022-08-21T11:21:53;94811.78;;;28.13;81.94
24956;BME280;12988;42.710;23.390;2022-08-21T11:24:33;94808.44;;;28.48;88.98
24956;BME280;12988;42.710;23.390;2022-08-21T11:29:38;94812.00;;;28.84;68.61
24956;BME280;12988;42.710;23.390;2022-08-21T11:46:38;94800.47;;;28.54;75.27
24956;BME280;12988;42.710;23.390;2022-08-21T11:52:29;94806.81;;;28.59;73.76
24956;BME280;12988;42.710;23.390;2022-08-21T11:57:39;94793.91;;;28.33;77.10
24956;BME280;12988;42.710;23.390;2022-08-21T12:00:28;94794.66;;;28.34;78.50
24956;BME280;12988;42.710;23.390;2022-08-21T12:02:58;94794.47;;;27.89;83.48
24956;BME280;12988;42.710;23.390;2022-08-21T12:11:05;94790.88;;;26.93;87.11
24956;BME280;12988;42.710;23.390;2022-08-21T12:13:37;94786.88;;;26.85;89.87
24956;BME280;12988;42.710;23.390;2022-08-21T12:16:12;94782.66;;;26.84;89.08
24956;BME280;12988;42.710;23.390;2022-08-21T12:18:37;94774.25;;;26.70;89.90
24956;BME280;12988;42.710;23.390;2022-08-21T12:26:59;94795.75;;;26.02;95.50
24956;BME280;12988;42.710;23.390;2022-08-21T12:29:33;94798.81;;;26.04;96.27
24956;BME280;12988;42.710;23.390;2022-08-21T12:34:55;94794.69;;;25.87;97.41
24956;BME280;12988;42.710;23.390;2022-08-21T12:37:45;94788.69;;;25.80;100.00
24956;BME280;12988;42.710;23.390;2022-08-21T12:40:22;94794.09;;;25.80;97.71
24956;BME280;12988;42.710;23.390;2022-08-21T12:42:53;94787.19;;;25.79;97.60
24956;BME280;12988;42.710;23.390;2022-08-21T12:45:28;94785.97;;;25.67;99.16
24956;BME280;12988;42.710;23.390;2022-08-21T12:48:18;94784.78;;;25.68;100.00
24956;BME280;12988;42.710;23.390;2022-08-21T12:50:50;94785.97;;;25.67;100.00
24956;BME280;12988;42.710;23.390;2022-08-21T12:53:40;94780.56;;;25.67;100.00
24956;BME280;12988;42.710;23.390;2022-08-21T12:56:12;94783.47;;;25.73;100.00
24956;BME280;12988;42.710;23.390;2022-08-21T12:58:41;94774.06;;;25.77;98.61
24956;BME280;12988;42.710;23.390;2022-08-21T13:01:27;94774.94;;;25.74;99.32
24956;BME280;12988;42.710;23.390;2022-08-21T13:03:54;94782.50;;;25.79;100.00
24956;BME280;12988;42.710;23.390;2022-08-21T13:06:22;94779.31;;;25.84;100.00
24956;BME280;12988;42.710;23.390;2022-08-21T13:08:51;94776.22;;;25.82;100.00
24956;BME280;12988;42.710;23.390;2022-08-21T13:11:22;94776.59;;;25.84;97.54
24956;BME280;12988;42.710;23.390;2022-08-21T13:13:52;94773.19;;;25.80;98.96
24956;BME280;12988;42.710;23.390;2022-08-21T13:16:23;94779.38;;;25.81;99.59
24956;BME280;12988;42.710;23.390;2022-08-21T13:19:11;94773.75;;;25.75;98.62
24956;BME280;12988;42.710;23.390;2022-08-21T13:21:42;94771.91;;;25.72;100.00
24956;BME280;12988;42.710;23.390;2022-08-21T13:24:27;94766.47;;;25.72;100.00
24956;BME280;12988;42.710;23.390;2022-08-21T13:26:54;94771.44;;;25.61;100.00
24956;BME280;12988;42.710;23.390;2022-08-21T13:29:23;94771.44;;;25.61;100.00
24956;BME280;12988;42.710;23.390;2022-08-21T13:31:55;94762.34;;;25.68;100.00
24956;BME280;12988;42.710;23.390;2022-08-21T13:34:24;94759.00;;;25.76;100.00
24956;BME280;12988;42.710;23.390;2022-08-21T13:37:11;94749.53;;;25.84;100.00
24956;BME280;12988;42.710;23.390;2022-08-21T13:39:37;94735.78;;;25.91;100.00
24956;BME280;12988;42.710;23.390;2022-08-21T13:42:08;94727.50;;;25.82;100.00
24956;BME280;12988;42.710;23.390;2022-08-21T13:44:35;94736.31;;;25.86;100.00
24956;BME280;12988;42.710;23.390;2022-08-21T13:47:03;94737.06;;;25.87;100.00
24956;BME280;12988;42.710;23.390;2022-08-21T13:49:38;94752.88;;;25.88;100.00
24956;BME280;12988;42.710;23.390;2022-08-21T13:52:16;94751.91;;;25.95;100.00
24956;BME280;12988;42.710;23.390;2022-08-21T13:54:43;94749.63;;;25.93;100.00
24956;BME280;12988;42.710;23.390;2022-08-21T13:57:25;94750.28;;;25.85;100.00
24956;BME280;12988;42.710;23.390;2022-08-21T13:59:51;94750.66;;;25.83;100.00
24956;BME280;12988;42.710;23.390;2022-08-21T14:02:23;94745.09;;;25.90;100.00
24956;BME280;12988;42.710;23.390;2022-08-21T14:04:55;94743.91;;;25.91;100.00
24956;BME280;12988;42.710;23.390;2022-08-21T14:07:39;94745.09;;;25.90;100.00
24956;BME280;12988;42.710;23.390;2022-08-21T14:10:10;94736.63;;;25.76;100.00
24956;BME280;12988;42.710;23.390;2022-08-21T14:13:01;94741.34;;;25.59;100.00
24956;BME280;12988;42.710;23.390;2022-08-21T14:15:31;94745.38;;;25.55;100.00
24956;BME280;12988;42.710;23.390;2022-08-21T14:18:17;94732.16;;;25.44;100.00
24956;BME280;12988;42.710;23.390;2022-08-21T14:20:44;94728.66;;;25.31;100.00
24956;BME280;12988;42.710;23.390;2022-08-21T14:23:10;94724.00;;;25.32;100.00